Time;durP1;ratioP1;P1;durP2;ratioP2;P2;SDS_P1;SDS_P2;PMS_P1;PMS_P2;Temp;Humidity;BMP_temperature;BMP_pressure;BME280_temperature;BME280_humidity;BME280_pressure;Samples;Min_cycle;Max_cycle;Signal;HPM_P1;HPM_P2
2021/12/03 00:00:07;;;;;;;11.77;5.00;;;7.80;99.90;;;;;;5050480;28;20447;-69
2021/12/03 00:02:34;;;;;;;8.80;5.10;;;7.60;99.90;;;;;;5051466;28;20453;-69
2021/12/03 00:05:03;;;;;;;8.60;5.57;;;7.70;99.90;;;;;;5051693;28;20481;-69
2021/12/03 00:07:30;;;;;;;7.90;5.40;;;7.70;99.90;;;;;;5051640;28;20456;-70
2021/12/03 00:09:58;;;;;;;9.23;5.23;;;7.70;99.90;;;;;;5051319;28;20545;-69
2021/12/03 00:12:25;;;;;;;9.00;5.00;;;7.60;99.90;;;;;;5050227;28;20898;-72
2021/12/03 00:14:52;;;;;;;15.27;5.63;;;7.60;99.90;;;;;;5051280;28;20537;-68
2021/12/03 00:17:19;;;;;;;10.03;5.90;;;7.80;99.90;;;;;;5051101;28;20455;-70
2021/12/03 00:19:46;;;;;;;8.03;5.07;;;7.70;99.90;;;;;;5051657;28;20530;-72
2021/12/03 00:22:15;;;;;;;9.80;6.20;;;7.50;99.90;;;;;;5050257;28;20443;-69
2021/12/03 00:24:42;;;;;;;8.93;5.47;;;7.60;99.90;;;;;;5050899;28;20984;-69
2021/12/03 00:27:09;;;;;;;6.73;4.40;;;7.60;99.90;;;;;;5051901;28;20616;-70
2021/12/03 00:29:36;;;;;;;10.00;6.47;;;7.60;99.90;;;;;;5051745;28;20522;-71
2021/12/03 00:32:04;;;;;;;8.23;5.10;;;7.70;99.90;;;;;;5050859;28;20493;-73
2021/12/03 00:34:31;;;;;;;7.37;4.60;;;7.80;99.90;;;;;;5051999;28;20475;-73
2021/12/03 00:36:58;;;;;;;9.17;4.80;;;7.60;99.90;;;;;;5051575;28;20460;-72
2021/12/03 00:39:26;;;;;;;7.43;4.10;;;7.80;99.90;;;;;;5051317;28;20459;-71
2021/12/03 00:41:58;;;;;;;9.20;4.80;;;7.90;99.90;;;;;;5050962;28;20537;-73
2021/12/03 00:44:25;;;;;;;6.73;3.83;;;8.00;99.90;;;;;;5051347;28;20451;-71
2021/12/03 00:46:53;;;;;;;7.40;4.80;;;8.00;99.90;;;;;;5050739;28;20837;-73
2021/12/03 00:49:20;;;;;;;10.37;4.77;;;8.00;99.90;;;;;;5047600;28;20522;-74
2021/12/03 00:51:47;;;;;;;8.10;4.63;;;8.00;99.90;;;;;;5051658;28;20572;-69
2021/12/03 00:54:15;;;;;;;11.00;4.80;;;8.00;99.90;;;;;;5051286;28;20940;-70
2021/12/03 00:56:44;;;;;;;6.97;4.00;;;8.10;99.90;;;;;;5051046;28;20767;-70
2021/12/03 00:59:11;;;;;;;8.77;4.73;;;8.10;99.90;;;;;;5050393;28;20492;-69
2021/12/03 01:01:39;;;;;;;7.43;4.27;;;8.20;99.90;;;;;;5050118;28;20464;-72
2021/12/03 01:04:06;;;;;;;9.13;4.80;;;8.30;99.90;;;;;;5051102;28;20548;-72
2021/12/03 01:06:34;;;;;;;7.77;4.43;;;8.30;99.90;;;;;;5050128;28;20816;-73
2021/12/03 01:09:01;;;;;;;8.00;5.03;;;8.50;99.90;;;;;;5051361;28;20534;-70
2021/12/03 01:11:28;;;;;;;10.17;5.30;;;8.40;99.90;;;;;;5050487;28;20536;-70
2021/12/03 01:14:00;;;;;;;7.90;4.93;;;8.00;99.90;;;;;;5050860;28;20475;-69
2021/12/03 01:16:28;;;;;;;10.83;4.80;;;7.90;99.90;;;;;;5050752;28;20489;-70
2021/12/03 01:18:56;;;;;;;9.97;6.40;;;8.10;99.90;;;;;;5049978;28;20505;-69
2021/12/03 01:21:23;;;;;;;7.27;5.00;;;8.30;99.90;;;;;;5050659;28;20825;-68
2021/12/03 01:23:50;;;;;;;8.63;4.63;;;8.10;99.90;;;;;;5051079;28;20455;-71
2021/12/03 01:26:18;;;;;;;8.40;4.60;;;8.00;99.90;;;;;;5051077;28;20548;-68
2021/12/03 01:28:46;;;;;;;6.37;4.03;;;8.10;99.90;;;;;;5050893;28;20465;-72
2021/12/03 01:31:16;;;;;;;6.90;4.17;;;8.20;99.90;;;;;;5050836;28;20492;-70
2021/12/03 01:33:43;;;;;;;7.70;4.03;;;8.30;99.90;;;;;;5050037;28;20463;-70
2021/12/03 01:36:10;;;;;;;6.90;3.70;;;8.40;99.90;;;;;;5050706;28;20468;-70
2021/12/03 01:38:37;;;;;;;5.43;2.73;;;8.70;99.90;;;;;;5048982;28;20490;-70
2021/12/03 01:41:04;;;;;;;8.23;3.57;;;8.70;99.90;;;;;;5050599;28;20464;-71
2021/12/03 01:43:32;;;;;;;7.23;3.37;;;8.70;99.90;;;;;;5050685;28;20464;-70
2021/12/03 01:46:02;;;;;;;5.30;3.13;;;9.00;99.90;;;;;;5050304;28;20559;-71
2021/12/03 01:48:31;;;;;;;5.43;3.23;;;9.10;99.90;;;;;;5049579;28;20460;-70
2021/12/03 01:50:59;;;;;;;5.70;3.20;;;9.00;99.90;;;;;;5050166;28;20457;-68
2021/12/03 01:53:30;;;;;;;6.43;3.43;;;9.00;99.90;;;;;;5050228;28;20465;-69
2021/12/03 01:56:03;;;;;;;5.73;3.10;;;9.10;99.90;;;;;;5049955;28;20898;-71
2021/12/03 01:58:30;;;;;;;9.20;3.50;;;9.20;99.90;;;;;;5050133;28;20465;-70
2021/12/03 02:00:59;;;;;;;7.80;3.50;;;9.30;99.90;;;;;;5049580;28;20465;-69
2021/12/03 02:03:31;;;;;;;5.33;2.80;;;9.60;99.90;;;;;;5049939;28;20461;-69
2021/12/03 02:06:00;;;;;;;6.07;2.30;;;9.70;99.90;;;;;;5049499;28;20994;-71
2021/12/03 02:08:28;;;;;;;5.03;2.13;;;9.60;99.90;;;;;;5034513;28;20458;-72
2021/12/03 02:10:56;;;;;;;6.40;2.90;;;9.90;99.90;;;;;;5049417;28;20464;-70
2021/12/03 02:13:23;;;;;;;5.77;2.40;;;9.90;99.90;;;;;;5049739;28;20551;-69
2021/12/03 02:15:51;;;;;;;5.00;2.50;;;10.10;99.90;;;;;;5049295;28;20923;-69
2021/12/03 02:18:21;;;;;;;6.03;2.30;;;10.10;99.90;;;;;;5049756;28;20450;-71
2021/12/03 02:20:51;;;;;;;5.00;2.83;;;10.10;99.90;;;;;;5050575;28;20446;-69
2021/12/03 02:23:20;;;;;;;4.83;2.57;;;10.20;99.90;;;;;;5049691;28;20446;-71
2021/12/03 02:25:48;;;;;;;7.50;2.30;;;10.40;99.90;;;;;;5049501;28;20482;-69
2021/12/03 02:28:16;;;;;;;4.40;2.20;;;10.40;99.90;;;;;;5049447;28;20450;-71
2021/12/03 02:30:45;;;;;;;4.40;2.00;;;10.50;99.90;;;;;;5049023;28;20485;-68
2021/12/03 02:33:12;;;;;;;8.60;2.30;;;10.60;99.90;;;;;;5049532;28;20486;-70
2021/12/03 02:35:40;;;;;;;7.73;2.00;;;10.70;99.90;;;;;;5049813;28;20478;-69
2021/12/03 02:38:09;;;;;;;3.70;1.77;;;10.70;99.90;;;;;;5050126;28;20846;-72
2021/12/03 02:40:36;;;;;;;5.30;2.10;;;10.70;99.90;;;;;;5048748;28;20477;-71
2021/12/03 02:43:04;;;;;;;14.87;1.90;;;10.70;99.90;;;;;;5049487;28;20450;-70
2021/12/03 02:45:31;;;;;;;4.80;2.17;;;10.70;99.90;;;;;;5049097;28;20837;-69
2021/12/03 02:48:00;;;;;;;4.33;2.37;;;10.80;99.90;;;;;;5049072;28;20461;-72
2021/12/03 02:50:28;;;;;;;6.67;2.33;;;10.90;99.90;;;;;;5048634;28;20477;-70
2021/12/03 02:52:55;;;;;;;6.27;2.33;;;11.00;99.90;;;;;;5049007;28;20493;-69
2021/12/03 02:55:24;;;;;;;4.10;2.10;;;11.00;99.90;;;;;;5048131;28;20525;-71
2021/12/03 02:57:51;;;;;;;3.70;1.67;;;10.90;99.90;;;;;;5049312;28;20484;-70
2021/12/03 03:00:21;;;;;;;4.83;1.90;;;10.90;99.90;;;;;;5048610;28;20507;-70
2021/12/03 03:02:48;;;;;;;4.27;1.60;;;10.90;99.90;;;;;;5048515;28;20454;-67
2021/12/03 03:05:17;;;;;;;5.30;2.47;;;10.90;99.90;;;;;;5047656;28;20482;-69
2021/12/03 03:07:46;;;;;;;4.20;1.97;;;11.00;99.90;;;;;;5048338;28;20462;-70
2021/12/03 03:10:15;;;;;;;4.83;1.80;;;11.00;99.90;;;;;;5048549;28;20462;-72
2021/12/03 03:12:44;;;;;;;6.80;1.67;;;11.00;99.90;;;;;;5048977;28;20520;-71
2021/12/03 03:15:13;;;;;;;3.40;1.60;;;11.00;99.90;;;;;;5048250;28;20477;-69
2021/12/03 03:17:41;;;;;;;4.20;1.97;;;10.90;99.90;;;;;;5048797;28;20915;-72
2021/12/03 03:20:10;;;;;;;6.23;2.00;;;10.80;99.90;;;;;;5048275;28;20457;-72
2021/12/03 03:22:39;;;;;;;4.80;1.90;;;10.80;99.90;;;;;;5048182;28;20480;-70
2021/12/03 03:25:07;;;;;;;4.03;1.73;;;10.80;99.90;;;;;;5048472;28;20470;-71
2021/12/03 03:27:35;;;;;;;5.57;2.30;;;10.80;99.90;;;;;;5049281;28;20977;-69
2021/12/03 03:30:06;;;;;;;4.70;2.20;;;10.80;99.90;;;;;;5048758;28;20450;-72
2021/12/03 03:32:33;;;;;;;4.23;2.17;;;10.80;99.90;;;;;;5048256;28;20489;-70
2021/12/03 03:35:00;;;;;;;5.57;3.33;;;10.90;99.90;;;;;;5048724;28;20493;-68
2021/12/03 03:37:27;;;;;;;5.50;2.87;;;11.00;99.90;;;;;;5047897;28;20952;-71
2021/12/03 03:39:54;;;;;;;5.40;2.20;;;11.00;99.90;;;;;;5048638;28;20449;-71
2021/12/03 03:42:21;;;;;;;4.70;2.40;;;11.00;99.90;;;;;;5049097;28;20504;-69
2021/12/03 03:44:48;;;;;;;6.13;3.20;;;10.90;99.90;;;;;;5048761;28;20986;-71
2021/12/03 03:47:17;;;;;;;7.07;2.90;;;11.00;99.90;;;;;;5048397;28;20450;-69
2021/12/03 03:49:45;;;;;;;4.93;2.47;;;10.80;99.90;;;;;;5048111;28;20457;-69
2021/12/03 03:52:12;;;;;;;5.53;2.03;;;10.60;99.90;;;;;;5048061;28;20531;-71
2021/12/03 03:54:39;;;;;;;4.47;2.07;;;10.50;99.90;;;;;;5046818;28;20975;-71
2021/12/03 03:57:07;;;;;;;6.03;2.17;;;10.50;99.90;;;;;;5048460;28;20981;-71
2021/12/03 03:59:34;;;;;;;4.47;2.50;;;10.50;99.90;;;;;;5048403;28;20462;-72
2021/12/03 04:02:01;;;;;;;3.50;1.50;;;10.60;99.90;;;;;;5047850;28;20453;-69
2021/12/03 04:04:30;;;;;;;4.50;2.27;;;10.50;99.90;;;;;;5047841;28;20477;-70
2021/12/03 04:06:57;;;;;;;5.67;2.57;;;10.60;99.90;;;;;;5047531;28;20465;-72
2021/12/03 04:09:24;;;;;;;4.83;2.37;;;10.60;99.90;;;;;;5051372;28;20507;-68
2021/12/03 04:11:51;;;;;;;5.20;2.20;;;10.40;99.90;;;;;;5064372;28;20571;-72
2021/12/03 04:14:18;;;;;;;6.60;2.27;;;10.40;99.90;;;;;;5056028;28;21068;-72
2021/12/03 04:16:45;;;;;;;5.00;2.23;;;10.40;99.90;;;;;;5051516;28;20454;-69
2021/12/03 04:19:12;;;;;;;5.50;2.33;;;10.40;99.90;;;;;;5052331;28;20787;-70
2021/12/03 04:21:41;;;;;;;5.63;1.93;;;10.40;99.90;;;;;;5052401;28;21089;-70
2021/12/03 04:24:08;;;;;;;6.83;2.87;;;10.50;99.90;;;;;;5050343;28;20865;-69
2021/12/03 04:26:35;;;;;;;4.47;2.20;;;10.50;99.90;;;;;;5052029;28;20461;-72
2021/12/03 04:29:03;;;;;;;5.83;2.50;;;10.40;99.90;;;;;;5051680;28;20450;-70
2021/12/03 04:31:31;;;;;;;4.70;2.50;;;10.30;99.90;;;;;;5048957;28;20454;-67
2021/12/03 04:33:59;;;;;;;5.53;2.77;;;10.40;99.90;;;;;;5051307;28;20489;-70
2021/12/03 04:36:26;;;;;;;4.83;2.23;;;10.40;99.90;;;;;;5051700;28;20535;-69
2021/12/03 04:38:54;;;;;;;5.27;2.80;;;10.60;99.90;;;;;;5051922;28;20445;-68
2021/12/03 04:41:22;;;;;;;12.40;4.40;;;10.50;99.90;;;;;;5052086;28;20545;-68
2021/12/03 04:43:49;;;;;;;5.90;2.50;;;10.20;99.90;;;;;;5051810;28;20465;-70
2021/12/03 04:46:16;;;;;;;6.23;2.93;;;10.20;99.90;;;;;;5051103;28;20880;-67
2021/12/03 04:48:44;;;;;;;5.40;2.33;;;10.30;99.90;;;;;;5050107;28;20450;-70
2021/12/03 04:51:11;;;;;;;5.60;3.00;;;10.50;99.90;;;;;;5050934;28;20477;-69
2021/12/03 04:53:38;;;;;;;6.20;3.30;;;10.40;99.90;;;;;;5051073;28;20486;-70
2021/12/03 04:56:07;;;;;;;6.27;3.60;;;10.30;99.90;;;;;;5051244;28;20481;-68
2021/12/03 04:58:34;;;;;;;7.03;3.27;;;10.10;99.90;;;;;;5051406;28;20520;-70
2021/12/03 05:01:01;;;;;;;4.27;2.43;;;10.10;99.90;;;;;;5050945;28;20913;-71
2021/12/03 05:03:29;;;;;;;5.00;2.57;;;10.00;99.90;;;;;;5051480;28;20453;-67
2021/12/03 05:06:00;;;;;;;4.77;2.70;;;10.00;99.90;;;;;;5051286;28;20531;-66
2021/12/03 05:08:29;;;;;;;6.30;2.90;;;10.00;99.90;;;;;;5051364;28;20464;-66
2021/12/03 05:10:58;;;;;;;4.77;2.60;;;10.10;99.90;;;;;;5051116;28;20970;-66
2021/12/03 05:13:30;;;;;;;6.00;2.80;;;10.20;99.90;;;;;;5051021;28;20602;-65
2021/12/03 05:15:57;;;;;;;6.80;3.27;;;10.10;99.90;;;;;;5051407;28;20515;-67
2021/12/03 05:18:27;;;;;;;7.43;2.60;;;10.10;99.90;;;;;;5051013;28;20451;-68
2021/12/03 05:20:56;;;;;;;4.53;2.90;;;10.30;99.90;;;;;;5050915;28;20465;-70
2021/12/03 05:23:24;;;;;;;4.73;3.00;;;10.40;99.90;;;;;;5050930;28;20523;-67
2021/12/03 05:25:52;;;;;;;6.73;3.23;;;10.50;99.90;;;;;;5051194;28;20516;-65
2021/12/03 05:28:19;;;;;;;6.90;2.97;;;10.30;99.90;;;;;;5050993;28;20453;-69
2021/12/03 05:30:48;;;;;;;5.97;2.80;;;10.20;99.90;;;;;;5044028;28;20451;-71
2021/12/03 05:33:16;;;;;;;5.13;2.73;;;10.30;99.90;;;;;;5031577;28;20579;-68
2021/12/03 05:35:44;;;;;;;7.63;2.50;;;10.30;99.90;;;;;;5030986;28;20862;-71
2021/12/03 05:38:11;;;;;;;5.93;2.70;;;10.30;99.90;;;;;;5031063;28;20521;-70
2021/12/03 05:40:38;;;;;;;6.30;3.40;;;10.40;99.90;;;;;;5045348;28;20454;-71
2021/12/03 05:43:06;;;;;;;5.87;3.80;;;10.40;99.90;;;;;;5051168;28;20854;-72
2021/12/03 05:45:34;;;;;;;6.70;3.30;;;10.40;99.90;;;;;;5050516;28;20470;-72
2021/12/03 05:48:03;;;;;;;6.33;3.20;;;10.20;99.90;;;;;;5050850;28;20519;-72
2021/12/03 05:50:30;;;;;;;6.37;3.60;;;10.10;99.90;;;;;;5050806;28;20560;-71
2021/12/03 05:52:58;;;;;;;6.20;2.40;;;10.10;99.90;;;;;;5049670;28;20488;-71
2021/12/03 05:55:26;;;;;;;7.87;3.10;;;10.20;99.90;;;;;;5048918;28;20466;-72
2021/12/03 05:57:53;;;;;;;5.00;2.80;;;10.20;99.90;;;;;;5050754;28;20460;-68
2021/12/03 06:00:25;;;;;;;9.00;3.00;;;10.30;99.90;;;;;;5049325;28;20465;-74
2021/12/03 06:02:52;;;;;;;6.90;3.37;;;10.50;99.90;;;;;;5050231;28;20792;-71
2021/12/03 06:05:22;;;;;;;6.77;3.40;;;10.60;99.90;;;;;;5049153;28;20552;-73
2021/12/03 06:07:49;;;;;;;4.87;2.53;;;10.70;99.90;;;;;;5049629;28;20450;-70
2021/12/03 06:10:16;;;;;;;8.17;3.70;;;10.60;99.90;;;;;;5049896;28;20542;-71
2021/12/03 06:12:44;;;;;;;5.13;2.93;;;10.60;99.90;;;;;;5049448;28;20502;-71
2021/12/03 06:15:11;;;;;;;7.43;4.47;;;10.50;99.90;;;;;;5050127;28;20474;-70
2021/12/03 06:17:38;;;;;;;6.47;3.43;;;10.60;99.90;;;;;;5050334;28;20457;-72
2021/12/03 06:20:08;;;;;;;6.47;3.27;;;10.70;99.90;;;;;;5050225;28;20454;-73
2021/12/03 06:22:37;;;;;;;7.80;4.23;;;10.70;99.90;;;;;;5050128;28;20454;-72
2021/12/03 06:25:05;;;;;;;7.57;2.87;;;10.70;99.90;;;;;;5050033;28;21205;-68
2021/12/03 06:27:32;;;;;;;4.90;2.77;;;10.80;99.90;;;;;;5049814;28;20442;-70
2021/12/03 06:30:00;;;;;;;7.20;2.90;;;10.90;99.90;;;;;;5049007;28;20615;-71
2021/12/03 06:32:28;;;;;;;5.10;3.10;;;11.00;99.90;;;;;;5049843;28;20446;-71
2021/12/03 06:34:55;;;;;;;6.67;3.93;;;11.10;99.90;;;;;;5049738;28;20532;-70
2021/12/03 06:37:22;;;;;;;5.73;3.83;;;11.20;99.90;;;;;;5049586;28;20512;-69
2021/12/03 06:39:50;;;;;;;6.90;3.33;;;11.10;99.90;;;;;;5049855;28;20464;-69
2021/12/03 06:42:17;;;;;;;5.60;3.17;;;11.20;99.90;;;;;;5049741;28;20507;-68
2021/12/03 06:44:44;;;;;;;8.93;3.50;;;11.20;99.90;;;;;;5049584;28;20536;-67
2021/12/03 06:47:11;;;;;;;7.60;2.97;;;11.40;99.90;;;;;;5049422;28;20450;-74
2021/12/03 06:49:38;;;;;;;9.03;3.87;;;11.40;99.90;;;;;;5049986;28;20454;-72
2021/12/03 06:52:08;;;;;;;7.17;3.40;;;11.50;99.90;;;;;;5049541;28;20461;-72
2021/12/03 06:54:36;;;;;;;6.47;3.63;;;11.50;99.90;;;;;;5049795;28;20520;-75
2021/12/03 06:57:07;;;;;;;6.70;3.80;;;11.50;99.90;;;;;;5049533;28;20565;-75
2021/12/03 06:59:35;;;;;;;8.33;4.87;;;11.60;99.90;;;;;;5049088;28;20946;-75
2021/12/03 07:02:02;;;;;;;5.20;3.17;;;11.60;99.90;;;;;;5049398;28;20549;-73
2021/12/03 07:04:29;;;;;;;6.13;2.50;;;11.60;99.90;;;;;;5049449;28;20568;-74
2021/12/03 07:06:56;;;;;;;8.63;3.20;;;11.70;99.90;;;;;;5049238;28;20446;-71
2021/12/03 07:09:23;;;;;;;10.57;4.77;;;11.80;99.90;;;;;;5049241;28;20462;-74
2021/12/03 07:11:50;;;;;;;7.70;4.57;;;11.90;99.90;;;;;;5048841;28;20562;-73
2021/12/03 07:14:19;;;;;;;6.80;3.20;;;11.80;99.90;;;;;;5049156;28;20493;-75
2021/12/03 07:16:46;;;;;;;8.27;3.03;;;11.00;99.90;;;;;;5049458;28;20450;-76
2021/12/03 07:19:13;;;;;;;5.90;2.60;;;11.70;99.90;;;;;;5049745;28;20856;-73
2021/12/03 07:21:41;;;;;;;6.13;3.60;;;11.60;99.90;;;;;;5049511;28;20454;-71
2021/12/03 07:24:08;;;;;;;5.10;3.00;;;11.70;99.90;;;;;;5048892;28;20541;-77
2021/12/03 07:26:35;;;;;;;7.70;3.50;;;10.40;99.90;;;;;;5049248;28;20462;-75
2021/12/03 07:29:02;;;;;;;7.73;3.83;;;11.80;99.90;;;;;;5048785;28;20446;-76
2021/12/03 07:31:31;;;;;;;8.23;3.73;;;11.70;99.90;;;;;;5048917;28;20795;-74
2021/12/03 07:33:58;;;;;;;10.03;4.80;;;11.90;99.90;;;;;;5048916;28;20500;-74
2021/12/03 07:36:25;;;;;;;8.23;3.57;;;11.90;99.90;;;;;;5048629;28;20560;-74
2021/12/03 07:38:53;;;;;;;11.10;3.03;;;12.00;99.90;;;;;;5049080;28;20811;-74
2021/12/03 07:41:20;;;;;;;7.10;2.90;;;12.10;99.90;;;;;;5049179;28;20873;-72
2021/12/03 07:43:47;;;;;;;5.43;2.83;;;12.30;99.90;;;;;;5053265;28;20460;-73
2021/12/03 07:46:15;;;;;;;8.30;2.30;;;12.50;99.90;;;;;;5053227;28;20881;-74
2021/12/03 07:48:46;;;;;;;6.50;2.60;;;12.70;99.90;;;;;;5053289;28;20468;-74
2021/12/03 07:51:14;;;;;;;6.07;2.67;;;12.90;99.90;;;;;;5052871;28;20969;-78
2021/12/03 07:53:41;;;;;;;7.67;3.13;;;13.10;99.90;;;;;;5053238;28;21040;-76
2021/12/03 07:56:09;;;;;;;8.13;2.83;;;13.00;99.90;;;;;;5053734;28;20484;-75
2021/12/03 07:58:37;;;;;;;7.43;2.60;;;13.30;99.90;;;;;;5053438;28;20653;-75
2021/12/03 08:01:05;;;;;;;7.83;2.70;;;13.40;99.90;;;;;;5052687;28;20459;-77
2021/12/03 08:03:32;;;;;;;8.23;2.20;;;13.50;99.90;;;;;;5052679;28;20450;-76
2021/12/03 08:06:06;;;;;;;5.40;1.70;;;13.60;99.90;;;;;;5051825;28;20473;-74
2021/12/03 08:08:34;;;;;;;8.20;2.70;;;13.80;99.90;;;;;;5052956;28;20454;-79
2021/12/03 08:11:01;;;;;;;5.30;2.70;;;13.80;99.90;;;;;;5052726;28;20460;-77
2021/12/03 08:13:29;;;;;;;6.00;2.70;;;13.80;99.90;;;;;;5052417;28;20564;-75
2021/12/03 08:15:56;;;;;;;5.57;2.90;;;13.90;99.90;;;;;;5052649;28;20875;-73
2021/12/03 08:18:23;;;;;;;5.40;2.17;;;14.00;99.90;;;;;;5052561;28;20457;-77
2021/12/03 08:20:51;;;;;;;8.07;2.57;;;14.00;99.90;;;;;;5051725;28;20454;-75
2021/12/03 08:23:19;;;;;;;5.37;2.00;;;14.10;99.90;;;;;;5052353;28;20457;-73
2021/12/03 08:25:47;;;;;;;9.50;2.90;;;14.20;99.90;;;;;;5052207;28;20503;-76
2021/12/03 08:28:14;;;;;;;6.07;2.30;;;14.20;99.90;;;;;;5052047;28;20469;-77
2021/12/03 08:30:41;;;;;;;8.40;2.40;;;14.20;99.90;;;;;;5052127;28;20525;-74
2021/12/03 08:33:08;;;;;;;5.73;2.27;;;14.40;99.90;;;;;;5052524;28;20457;-74
2021/12/03 08:35:36;;;;;;;7.87;1.87;;;14.30;99.90;;;;;;5054681;28;20539;-76
2021/12/03 08:38:03;;;;;;;5.30;2.23;;;14.20;99.90;;;;;;5053863;28;20453;-72
2021/12/03 08:40:32;;;;;;;6.30;2.20;;;14.20;99.90;;;;;;5053948;28;20450;-74
2021/12/03 08:42:59;;;;;;;6.20;2.07;;;14.20;99.90;;;;;;5053416;28;20469;-77
2021/12/03 08:45:27;;;;;;;7.87;2.27;;;14.30;99.90;;;;;;5052283;28;20478;-78
2021/12/03 08:47:57;;;;;;;4.60;1.80;;;14.50;99.90;;;;;;5052320;28;20535;-74
2021/12/03 08:50:30;;;;;;;4.30;1.27;;;14.40;99.90;;;;;;5051969;28;20462;-78
2021/12/03 08:55:51;;;;;;;9.10;1.50;;;14.60;99.90;;;;;;5051443;28;20469;-75
2021/12/03 08:58:19;;;;;;;9.13;1.33;;;14.70;99.90;;;;;;5051436;28;20450;-75
2021/12/03 09:00:46;;;;;;;5.47;1.40;;;14.70;99.90;;;;;;5051928;28;20449;-76
2021/12/03 09:03:13;;;;;;;4.50;1.60;;;14.70;99.90;;;;;;5052167;28;20514;-74
2021/12/03 09:05:41;;;;;;;6.80;1.73;;;14.70;99.90;;;;;;5051336;28;20470;-76
2021/12/03 09:08:09;;;;;;;4.57;1.17;;;14.70;99.90;;;;;;5051445;28;20553;-74
2021/12/03 09:10:36;;;;;;;5.97;2.60;;;14.80;99.90;;;;;;5051381;28;20519;-73
2021/12/03 09:13:05;;;;;;;8.63;1.90;;;14.80;99.90;;;;;;5051116;28;20481;-74
2021/12/03 09:15:37;;;;;;;4.67;1.50;;;14.70;99.90;;;;;;5051287;28;20496;-76
2021/12/03 09:21:03;;;;;;;5.53;1.70;;;14.70;99.90;;;;;;5026026;28;20445;-74
2021/12/03 09:23:39;;;;;;;4.40;1.60;;;14.80;99.90;;;;;;5051614;28;20931;-72
2021/12/03 09:26:09;;;;;;;9.50;3.87;;;14.80;99.90;;;;;;5051532;28;20469;-77
2021/12/03 09:28:41;;;;;;;7.37;2.77;;;14.90;99.90;;;;;;5051357;28;20522;-73
2021/12/03 09:31:09;;;;;;;4.60;1.50;;;14.90;99.90;;;;;;5050902;28;20466;-73
2021/12/03 09:33:39;;;;;;;6.20;1.80;;;14.90;99.90;;;;;;5051241;28;20820;-74
2021/12/03 09:36:08;;;;;;;6.20;1.33;;;14.70;99.90;;;;;;5051821;28;20478;-75
2021/12/03 09:38:36;;;;;;;7.73;1.30;;;14.70;99.90;;;;;;5050829;28;20925;-78
2021/12/03 09:41:09;;;;;;;9.53;1.60;;;14.70;99.90;;;;;;5050782;28;20458;-75
2021/12/03 09:43:41;;;;;;;4.33;1.20;;;14.80;99.90;;;;;;5051049;28;20457;-74
2021/12/03 09:46:14;;;;;;;5.77;1.83;;;14.90;99.90;;;;;;5050949;28;20503;-78
2021/12/03 09:48:55;;;;;;;10.23;2.70;;;14.90;99.90;;;;;;5050989;28;20548;-79
2021/12/03 09:51:22;;;;;;;8.80;2.80;;;15.00;99.90;;;;;;5050945;28;20499;-75
2021/12/03 09:56:36;;;;;;;13.40;4.10;;;15.00;99.90;;;;;;5034071;28;20509;-79
2021/12/03 10:01:59;;;;;;;6.13;1.90;;;15.10;99.70;;;;;;5043388;28;20795;-75
2021/12/03 10:04:47;;;;;;;7.17;2.70;;;15.00;99.90;;;;;;5049741;28;20473;-75
2021/12/03 10:12:46;;;;;;;9.47;2.17;;;15.00;99.90;;;;;;5050126;28;20499;-77
2021/12/03 10:15:17;;;;;;;9.00;1.97;;;15.00;99.90;;;;;;5050559;28;20494;-76
2021/12/03 10:20:42;;;;;;;5.70;1.63;;;15.00;99.90;;;;;;5051151;28;20449;-76
2021/12/03 10:37:24;;;;;;;5.50;1.70;;;15.50;99.90;;;;;;5050061;28;20572;-79
2021/12/03 10:42:53;;;;;;;7.00;2.43;;;16.00;99.90;;;;;;5049699;28;20461;-77
2021/12/03 10:45:29;;;;;;;5.33;1.77;;;16.50;98.90;;;;;;5049720;28;20577;-73
2021/12/03 10:48:14;;;;;;;5.73;1.97;;;16.80;96.80;;;;;;5049226;28;20477;-75
2021/12/03 10:53:29;;;;;;;6.93;1.80;;;17.20;94.90;;;;;;5040147;28;20441;-75
2021/12/03 10:59:07;;;;;;;11.03;1.60;;;17.10;93.80;;;;;;5026399;28;20438;-76
2021/12/03 11:30:41;;;;;;;6.73;1.23;;;16.60;93.30;;;;;;5048532;28;20521;-75
2021/12/03 14:09:07;;;;;;;5.13;1.90;;;15.20;92.20;;;;;;5050301;28;20573;-71
2021/12/03 14:43:11;;;;;;;5.80;2.40;;;15.10;91.80;;;;;;5049430;28;20474;-70
2021/12/03 14:46:04;;;;;;;7.93;1.37;;;14.90;92.50;;;;;;5049812;28;20476;-72
2021/12/03 14:48:43;;;;;;;4.23;1.20;;;15.00;93.20;;;;;;5049878;28;20551;-72
2021/12/03 14:57:22;;;;;;;6.43;1.80;;;15.30;91.70;;;;;;5031804;28;20465;-74
2021/12/03 14:59:57;;;;;;;10.50;1.70;;;15.10;91.70;;;;;;5041139;28;20461;-71
2021/12/03 15:02:53;;;;;;;5.97;1.70;;;15.00;91.90;;;;;;5049680;28;20449;-73
2021/12/03 15:08:25;;;;;;;11.70;1.80;;;15.00;92.40;;;;;;5045814;28;20523;-72
2021/12/03 15:22:04;;;;;;;7.57;1.80;;;15.00;92.00;;;;;;5049334;28;20444;-73
2021/12/03 15:24:48;;;;;;;6.87;1.90;;;15.10;92.10;;;;;;5049478;28;20543;-74
2021/12/03 15:32:42;;;;;;;6.43;1.50;;;15.00;91.30;;;;;;5040213;28;20449;-74
2021/12/03 15:35:13;;;;;;;6.40;1.63;;;15.00;91.30;;;;;;5047903;28;20497;-74
2021/12/03 15:54:42;;;;;;;6.40;1.80;;;14.90;93.10;;;;;;5048925;28;20512;-70
2021/12/03 15:57:18;;;;;;;4.60;1.10;;;14.80;93.50;;;;;;5047430;28;20453;-72
2021/12/03 16:05:46;;;;;;;13.07;4.27;;;14.50;95.40;;;;;;5051791;28;20441;-74
2021/12/03 16:08:17;;;;;;;10.20;4.17;;;14.10;98.10;;;;;;5052856;28;20450;-70
2021/12/03 16:10:54;;;;;;;14.73;4.13;;;13.90;99.90;;;;;;5052688;28;20458;-72
2021/12/03 16:13:43;;;;;;;8.23;4.53;;;13.80;99.90;;;;;;5052548;28;20507;-71
2021/12/03 16:16:59;;;;;;;11.73;6.37;;;13.80;99.90;;;;;;5052547;28;20909;-73
2021/12/03 16:22:22;;;;;;;13.50;5.47;;;13.70;99.90;;;;;;5034262;28;20494;-75
2021/12/03 16:25:13;;;;;;;8.80;5.20;;;13.60;99.90;;;;;;5052391;28;20487;-69
2021/12/03 16:31:03;;;;;;;10.10;4.90;;;13.40;99.90;;;;;;5052245;28;20959;-70
2021/12/03 16:47:11;;;;;;;8.80;5.40;;;11.90;99.90;;;;;;5042803;28;20441;-72
2021/12/03 16:52:28;;;;;;;10.77;5.13;;;11.80;99.90;;;;;;5052065;28;20433;-72
2021/12/03 16:54:56;;;;;;;7.33;4.97;;;11.70;99.90;;;;;;5051808;28;20490;-71
2021/12/03 16:57:30;;;;;;;6.73;4.60;;;11.80;99.90;;;;;;5051930;28;20473;-71
2021/12/03 17:00:00;;;;;;;7.33;4.87;;;11.70;99.90;;;;;;5051603;28;20464;-73
2021/12/03 17:02:34;;;;;;;11.13;5.00;;;11.60;99.90;;;;;;5051768;28;20973;-71
2021/12/03 17:49:44;;;;;;;3.90;1.77;;;10.10;99.90;;;;;;5052424;28;20456;-73
2021/12/03 17:55:13;;;;;;;4.40;2.00;;;10.30;99.90;;;;;;5048712;28;20749;-70
2021/12/03 17:57:45;;;;;;;5.37;2.37;;;10.10;99.90;;;;;;5050676;28;20864;-72
2021/12/03 18:00:19;;;;;;;3.30;1.30;;;10.20;99.90;;;;;;5050613;28;20457;-69
2021/12/03 18:02:49;;;;;;;3.50;1.50;;;10.10;99.90;;;;;;5050436;28;20456;-71
2021/12/03 18:08:11;;;;;;;3.27;1.70;;;9.80;99.90;;;;;;5046532;28;20527;-74
2021/12/03 18:44:24;;;;;;;8.20;2.90;;;7.90;99.90;;;;;;5036162;28;20438;-77
2021/12/03 18:52:56;;;;;;;4.30;1.80;;;8.00;99.90;;;;;;4987302;28;20989;-72
2021/12/03 18:55:32;;;;;;;4.40;2.27;;;8.10;99.90;;;;;;4987439;28;20553;-70
2021/12/03 18:58:02;;;;;;;3.73;1.60;;;8.00;99.90;;;;;;5011550;28;20497;-77
2021/12/03 19:00:31;;;;;;;4.20;2.00;;;7.90;99.90;;;;;;5043830;28;20466;-79
2021/12/03 19:03:00;;;;;;;4.50;1.70;;;7.70;99.90;;;;;;5049427;28;20463;-76
2021/12/03 19:05:34;;;;;;;5.77;2.00;;;7.70;99.90;;;;;;5049319;28;20964;-75
2021/12/03 19:08:07;;;;;;;4.57;1.97;;;7.60;99.90;;;;;;5049570;28;20522;-77
2021/12/03 19:10:41;;;;;;;3.97;2.00;;;7.70;99.90;;;;;;5049518;28;20494;-79
2021/12/03 19:13:12;;;;;;;4.40;1.90;;;7.70;99.90;;;;;;5050254;28;20479;-80
2021/12/03 19:15:41;;;;;;;4.90;2.07;;;7.70;99.90;;;;;;5048621;28;20567;-74
2021/12/03 19:18:08;;;;;;;5.00;2.07;;;7.70;99.90;;;;;;5049455;28;20820;-70
2021/12/03 19:20:39;;;;;;;5.47;2.27;;;7.60;99.90;;;;;;5049458;28;20929;-72
2021/12/03 19:23:07;;;;;;;7.03;2.97;;;7.60;99.90;;;;;;5049091;28;20462;-72
2021/12/03 19:25:35;;;;;;;4.60;2.23;;;7.40;99.90;;;;;;5048440;28;20521;-72
2021/12/03 19:28:02;;;;;;;3.80;1.70;;;7.30;99.90;;;;;;5049120;28;20517;-72
2021/12/03 19:30:29;;;;;;;4.20;2.00;;;7.20;99.90;;;;;;5048765;28;20455;-72
2021/12/03 19:32:56;;;;;;;4.60;2.37;;;7.20;99.90;;;;;;5048651;28;20462;-71
2021/12/03 19:35:24;;;;;;;4.87;2.87;;;7.20;99.90;;;;;;5048999;28;20563;-71
2021/12/03 19:37:54;;;;;;;6.00;2.33;;;7.20;99.90;;;;;;5049544;28;20470;-72
2021/12/03 19:40:24;;;;;;;4.73;2.67;;;7.20;99.90;;;;;;5052674;28;20465;-70
2021/12/03 19:42:55;;;;;;;4.67;2.10;;;6.80;99.90;;;;;;5052751;28;20457;-71
2021/12/03 19:45:27;;;;;;;5.90;2.80;;;6.50;99.90;;;;;;5052314;28;22357;-70
2021/12/03 19:48:09;;;;;;;4.73;2.50;;;6.60;99.90;;;;;;5052409;28;20564;-71
2021/12/03 19:50:41;;;;;;;4.73;2.33;;;6.50;99.90;;;;;;5052964;28;20454;-71
2021/12/03 19:53:13;;;;;;;5.17;2.30;;;6.50;99.90;;;;;;5053040;28;20457;-71
2021/12/03 19:55:44;;;;;;;4.10;2.20;;;6.40;99.90;;;;;;5053105;28;20856;-69
2021/12/03 19:58:14;;;;;;;4.63;1.87;;;6.40;99.90;;;;;;5053024;28;20449;-70